Terminal Aerodrome Forecast
Issued by NWS

Home | Current Version | Previous Version | Text Only | Print | Product List | Glossary On
Versions: 1 2 3 4 5 6 7 8 9 10 11 12 13 14 15 16 17 18 19 20 21
628
FTUS45 KABQ 200538
TAFGUP
TAF
KGUP 200538Z 2006/2106 25015KT 4SM -SN OVC025
      TEMPO 2006/2008 1SM -SN BR OVC010
     FM200800 25015KT P6SM VCSH BKN035
     FM201000 24009KT P6SM BKN050
     FM201700 24013G21KT P6SM FEW050
     FM210100 VRB04KT P6SM SKC=

USA.gov is the U.S. government's official web portal to all federal, state and local government web resources and services.